Time;durP1;ratioP1;P1;durP2;ratioP2;P2;SDS_P1;SDS_P2;PMS_P1;PMS_P2;Temp;Humidity;BMP_temperature;BMP_pressure;BME280_temperature;BME280_humidity;BME280_pressure;Samples;Min_cycle;Max_cycle;Signal;HPM_P1;HPM_P2
2024/03/25 00:00:31;;;;;;;9.73;2.17;;;;;;;5.37;100.00;100814.59;5040088;28;20037;-85
2024/03/25 00:02:59;;;;;;;8.50;2.50;;;;;;;5.25;100.00;100812.22;5041612;28;20028;-85
2024/03/25 00:05:25;;;;;;;8.07;1.65;;;;;;;5.11;100.00;100808.16;5042461;28;20035;-85
2024/03/25 00:07:51;;;;;;;5.32;1.58;;;;;;;5.04;100.00;100811.75;5038768;28;20139;-85
2024/03/25 00:10:17;;;;;;;4.10;1.52;;;;;;;5.00;100.00;100805.75;5061923;28;20024;-85
2024/03/25 00:12:43;;;;;;;12.43;2.33;;;;;;;4.98;100.00;100806.66;5055556;28;20029;-85
2024/03/25 00:15:09;;;;;;;5.22;1.83;;;;;;;4.90;100.00;100801.59;5073159;28;20059;-85
2024/03/25 00:17:34;;;;;;;5.88;1.83;;;;;;;4.86;100.00;100799.94;5054899;28;20024;-85
2024/03/25 00:19:59;;;;;;;7.70;1.83;;;;;;;4.86;100.00;100810.34;5073109;28;20047;-85
2024/03/25 00:22:25;;;;;;;3.65;1.60;;;;;;;4.80;100.00;100808.69;5057912;28;20036;-85
2024/03/25 00:24:51;;;;;;;5.78;2.00;;;;;;;4.76;100.00;100808.75;5075085;28;20362;-85
2024/03/25 00:27:17;;;;;;;11.98;2.13;;;;;;;4.69;100.00;100805.41;5075111;28;20032;-85
2024/03/25 00:29:44;;;;;;;5.50;1.42;;;;;;;4.63;100.00;100808.13;5075659;28;20047;-85
2024/03/25 00:32:10;;;;;;;6.60;2.22;;;;;;;4.57;100.00;100808.22;5075874;28;20043;-85
2024/03/25 00:34:36;;;;;;;6.93;1.95;;;;;;;4.55;100.00;100813.44;5075296;28;20032;-85
2024/03/25 00:37:02;;;;;;;6.53;2.30;;;;;;;4.54;100.00;100811.72;5074456;28;20032;-85
2024/03/25 00:39:32;;;;;;;4.90;1.55;;;;;;;4.55;100.00;100817.78;5075037;28;20225;-85
2024/03/25 00:41:57;;;;;;;3.85;1.48;;;;;;;4.55;100.00;100813.44;5063258;28;20028;-85
2024/03/25 00:44:23;;;;;;;5.38;1.95;;;;;;;4.56;100.00;100809.09;5055476;28;20070;-85
2024/03/25 00:46:48;;;;;;;8.50;2.38;;;;;;;4.56;100.00;100814.28;5055709;28;20044;-85
2024/03/25 00:49:13;;;;;;;7.75;1.67;;;;;;;4.55;100.00;100816.03;5055517;28;20446;-85
2024/03/25 00:51:39;;;;;;;5.03;1.27;;;;;;;4.52;100.00;100818.66;5059306;28;20024;-85
2024/03/25 00:54:04;;;;;;;4.45;1.67;;;;;;;4.48;100.00;100817.00;5075989;28;20082;-85
2024/03/25 00:56:31;;;;;;;7.05;1.42;;;;;;;4.43;100.00;100816.22;5074278;28;20017;-85
2024/03/25 00:58:58;;;;;;;4.88;1.52;;;;;;;4.39;100.00;100815.41;5075857;28;20020;-85
2024/03/25 01:01:23;;;;;;;5.18;1.63;;;;;;;4.36;100.00;100818.03;5075146;28;20025;-85
2024/03/25 01:03:49;;;;;;;5.35;1.35;;;;;;;4.31;100.00;100819.88;5075438;28;20034;-85
2024/03/25 01:06:14;;;;;;;7.32;1.50;;;;;;;4.28;100.00;100829.44;5075117;28;20231;-85
2024/03/25 01:08:39;;;;;;;9.73;1.70;;;;;;;4.27;100.00;100828.56;5075041;28;20032;-85
2024/03/25 01:11:06;;;;;;;6.53;1.63;;;;;;;4.24;100.00;100831.22;5070405;28;20040;-85
2024/03/25 01:13:31;;;;;;;5.85;1.33;;;;;;;4.21;100.00;100826.91;5055174;28;20033;-85
2024/03/25 01:15:56;;;;;;;6.93;1.23;;;;;;;4.20;100.00;100832.13;5055679;28;20100;-85
2024/03/25 01:18:22;;;;;;;4.80;1.40;;;;;;;4.20;100.00;100830.41;5055177;28;20119;-85
2024/03/25 01:20:49;;;;;;;7.32;2.20;;;;;;;4.20;100.00;100838.19;5053587;28;20332;-85
2024/03/25 01:23:15;;;;;;;6.70;1.88;;;;;;;4.20;100.00;100825.22;5054796;28;20021;-85
2024/03/25 01:25:40;;;;;;;6.20;1.73;;;;;;;4.18;100.00;100821.78;5054923;28;20078;-85
2024/03/25 01:28:05;;;;;;;6.35;1.70;;;;;;;4.14;100.00;100821.84;5053729;28;20063;-85
2024/03/25 01:30:32;;;;;;;7.32;2.00;;;;;;;4.08;100.00;100825.38;5054638;28;20079;-85
2024/03/25 01:32:57;;;;;;;10.07;2.08;;;;;;;4.02;100.00;100823.72;5037342;28;20117;-85
2024/03/25 01:35:22;;;;;;;9.80;1.75;;;;;;;3.98;100.00;100824.66;5055071;28;20035;-85
2024/03/25 01:37:49;;;;;;;10.38;2.08;;;;;;;3.99;100.00;100825.50;5054998;28;20056;-85
2024/03/25 01:40:14;;;;;;;6.18;1.80;;;;;;;4.01;100.00;100827.19;5055031;28;20110;-85
2024/03/25 01:42:41;;;;;;;4.72;1.67;;;;;;;4.06;100.00;100828.84;5036835;28;20060;-85
2024/03/25 01:45:07;;;;;;;5.95;2.20;;;;;;;4.12;100.00;100823.59;5054671;28;20083;-85
2024/03/25 01:47:35;;;;;;;3.97;1.58;;;;;;;4.14;100.00;100827.03;5036582;28;20159;-85
2024/03/25 01:50:01;;;;;;;7.77;2.00;;;;;;;4.15;100.00;100821.81;5057473;28;20028;-85
2024/03/25 01:52:27;;;;;;;5.28;1.45;;;;;;;4.19;100.00;100820.91;5058899;28;20286;-85
2024/03/25 01:54:53;;;;;;;7.20;1.60;;;;;;;4.26;100.00;100821.66;5058313;28;20037;-85
2024/03/25 01:57:20;;;;;;;6.40;1.90;;;;;;;4.31;100.00;100812.09;5057794;28;20044;-85
2024/03/25 01:59:46;;;;;;;5.07;1.35;;;;;;;4.37;100.00;100816.31;5058020;28;20032;-85
2024/03/25 02:02:12;;;;;;;7.40;1.70;;;;;;;4.40;100.00;100826.63;5058283;28;20396;-85
2024/03/25 02:04:40;;;;;;;8.13;1.77;;;;;;;4.42;100.00;100814.50;5058317;28;20040;-85
2024/03/25 02:07:08;;;;;;;7.32;1.67;;;;;;;4.43;100.00;100821.41;5058150;28;20111;-85
2024/03/25 02:09:35;;;;;;;;;;;;;;;4.42;100.00;100820.56;5058501;28;20142;-85
2024/03/25 02:12:02;;;;;;;14.18;2.25;;;;;;;4.39;100.00;100822.34;5071404;28;19916;-85
2024/03/25 02:14:27;;;;;;;8.40;2.15;;;;;;;4.35;100.00;100813.75;5078455;28;20209;-85
2024/03/25 02:16:52;;;;;;;9.00;2.15;;;;;;;4.33;100.00;100806.84;5078481;28;20032;-85
2024/03/25 02:19:18;;;;;;;10.38;1.95;;;;;;;4.31;100.00;100806.91;5078551;28;20028;-85
2024/03/25 02:21:43;;;;;;;9.68;1.98;;;;;;;4.28;100.00;100806.09;5077984;28;20044;-85
2024/03/25 02:24:10;;;;;;;6.13;2.05;;;;;;;4.23;100.00;100798.38;5078654;28;20547;-85
2024/03/25 02:26:35;;;;;;;5.85;1.40;;;;;;;4.21;100.00;100798.41;5077395;28;20028;-85
2024/03/25 02:29:02;;;;;;;7.97;2.17;;;;;;;4.19;100.00;100789.78;5078299;28;20028;-85
2024/03/25 02:31:27;;;;;;;11.27;2.35;;;;;;;4.16;100.00;100789.81;5077645;28;20341;-85
2024/03/25 02:33:52;;;;;;;9.02;2.00;;;;;;;4.13;100.00;100789.00;5078411;28;20088;-85
2024/03/25 02:36:18;;;;;;;5.57;1.95;;;;;;;4.08;100.00;100783.91;5077735;28;20366;-85
2024/03/25 02:38:43;;;;;;;6.32;1.80;;;;;;;4.04;100.00;100780.50;5059332;28;20032;-85
2024/03/25 02:41:09;;;;;;;4.97;2.13;;;;;;;4.02;100.00;100781.41;5077781;28;20039;-85
2024/03/25 02:43:34;;;;;;;6.28;2.28;;;;;;;3.99;100.00;100779.72;5077332;28;20032;-85
2024/03/25 02:46:00;;;;;;;6.07;1.85;;;;;;;3.98;100.00;100785.78;5078233;28;20067;-85
2024/03/25 02:48:25;;;;;;;10.30;2.20;;;;;;;3.96;100.00;100784.09;5077472;28;20035;-85
2024/03/25 02:50:50;;;;;;;5.55;2.03;;;;;;;3.89;100.00;100783.31;5077521;28;20139;-85
2024/03/25 02:53:16;;;;;;;5.78;2.10;;;;;;;3.88;100.00;100780.75;5077754;28;20036;-85
2024/03/25 02:55:41;;;;;;;8.35;2.40;;;;;;;3.82;100.00;100779.09;5077650;28;20086;-85
2024/03/25 02:58:06;;;;;;;12.57;2.25;;;;;;;3.80;100.00;100775.66;5077822;28;20028;-85
2024/03/25 03:00:32;;;;;;;11.73;2.78;;;;;;;3.76;100.00;100774.84;5076675;28;20030;-85
2024/03/25 03:02:57;;;;;;;6.93;2.33;;;;;;;3.71;100.00;100770.59;5077489;28;20103;-85
2024/03/25 03:05:22;;;;;;;6.10;1.50;;;;;;;3.64;100.00;100759.50;5076888;28;20040;-85
2024/03/25 03:07:48;;;;;;;5.85;2.00;;;;;;;3.61;100.00;100757.78;5058825;28;20036;-85
2024/03/25 03:10:13;;;;;;;10.15;2.38;;;;;;;3.57;100.00;100758.72;5076752;28;20044;-85
2024/03/25 03:12:39;;;;;;;8.07;2.45;;;;;;;3.53;100.00;100756.16;5080150;28;20249;-83
2024/03/25 03:15:05;;;;;;;6.35;2.38;;;;;;;3.50;100.00;100764.84;5079371;28;20036;-83
2024/03/25 03:17:30;;;;;;;6.65;2.35;;;;;;;3.52;100.00;100768.25;5079458;28;20032;-83
2024/03/25 03:19:55;;;;;;;7.03;2.47;;;;;;;3.50;100.00;100770.03;5079650;28;20040;-83
2024/03/25 03:22:21;;;;;;;5.68;2.28;;;;;;;3.48;100.00;100769.19;5061521;28;20048;-83
2024/03/25 03:24:46;;;;;;;8.60;2.25;;;;;;;3.43;100.00;100765.78;5079353;28;20032;-83
2024/03/25 03:27:11;;;;;;;4.85;2.03;;;;;;;3.36;100.00;100756.38;5079568;28;20030;-83
2024/03/25 03:29:37;;;;;;;7.57;2.05;;;;;;;3.32;100.00;100750.38;5078705;28;20036;-83
2024/03/25 03:32:02;;;;;;;7.70;2.08;;;;;;;3.28;100.00;100748.72;5079895;28;20031;-84
2024/03/25 03:34:27;;;;;;;5.38;1.92;;;;;;;3.27;100.00;100757.34;5079045;28;20024;-83
2024/03/25 03:36:53;;;;;;;7.10;1.92;;;;;;;3.23;100.00;100751.34;5078924;28;20036;-83
2024/03/25 03:39:19;;;;;;;6.20;2.55;;;;;;;3.21;100.00;100750.50;5079114;28;20045;-84
2024/03/25 03:41:44;;;;;;;5.90;2.20;;;;;;;3.18;100.00;100744.50;5050382;28;20037;-84
2024/03/25 03:44:09;;;;;;;9.20;2.67;;;;;;;3.15;100.00;100745.41;5059385;28;20036;-83
2024/03/25 03:46:35;;;;;;;7.20;2.55;;;;;;;3.13;100.00;100754.94;5057554;28;20021;-83
2024/03/25 03:49:00;;;;;;;4.72;1.70;;;;;;;3.08;100.00;100747.22;5058973;28;20033;-84
2024/03/25 03:51:26;;;;;;;6.78;2.05;;;;;;;3.07;100.00;100747.22;5058848;28;20089;-84
2024/03/25 03:53:51;;;;;;;6.72;2.13;;;;;;;3.02;100.00;100749.88;5059133;28;20033;-84
2024/03/25 03:56:17;;;;;;;4.40;1.67;;;;;;;2.96;100.00;100742.16;5058423;28;20290;-83
2024/03/25 03:58:42;;;;;;;5.30;1.83;;;;;;;2.93;100.00;100743.94;5058005;28;20071;-86
2024/03/25 04:01:17;;;;;;;7.82;2.53;;;;;;;2.91;100.00;100737.91;5056508;28;20067;-86
2024/03/25 04:03:43;;;;;;;6.03;2.38;;;;;;;2.91;100.00;100743.09;5054587;28;20103;-86
2024/03/25 04:06:12;;;;;;;3.50;1.73;;;;;;;2.88;100.00;100739.66;5055840;28;20041;-86
2024/03/25 04:08:41;;;;;;;6.13;2.05;;;;;;;2.84;100.00;100743.16;5056144;28;20488;-86
2024/03/25 04:11:07;;;;;;;5.50;2.20;;;;;;;2.82;100.00;100741.44;5060505;28;20339;-86
2024/03/25 04:13:33;;;;;;;2.72;1.63;;;;;;;2.82;100.00;100742.34;5074218;28;20056;-86
2024/03/25 04:16:05;;;;;;;6.03;1.95;;;;;;;2.81;100.00;100742.34;5058088;28;20333;-86
2024/03/25 04:18:33;;;;;;;6.85;2.33;;;;;;;2.79;100.00;100741.50;5057782;28;20341;-86
2024/03/25 04:20:58;;;;;;;10.48;2.13;;;;;;;2.76;100.00;100736.34;5074920;28;20054;-86
2024/03/25 04:23:24;;;;;;;4.35;1.90;;;;;;;2.74;100.00;100740.69;5076348;28;20064;-86
2024/03/25 04:25:50;;;;;;;5.30;2.40;;;;;;;2.74;100.00;100740.69;5076233;28;20119;-86
2024/03/25 04:28:15;;;;;;;6.32;2.30;;;;;;;2.70;100.00;100742.44;5075798;28;20138;-86
2024/03/25 04:30:41;;;;;;;4.55;1.85;;;;;;;2.69;100.00;100741.59;5057307;28;20262;-86
2024/03/25 04:33:07;;;;;;;3.78;1.80;;;;;;;2.65;100.00;100737.31;5076197;28;20033;-86
2024/03/25 04:35:32;;;;;;;4.25;1.92;;;;;;;2.65;100.00;100732.13;5075678;28;20094;-86
2024/03/25 04:37:57;;;;;;;4.90;1.95;;;;;;;2.64;100.00;100737.34;5075754;28;20082;-86
2024/03/25 04:40:23;;;;;;;3.83;1.50;;;;;;;2.65;100.00;100739.03;5075802;28;20032;-86
2024/03/25 04:42:48;;;;;;;6.07;2.63;;;;;;;2.62;100.00;100741.66;5056418;28;20060;-86
2024/03/25 04:45:14;;;;;;;4.13;2.10;;;;;;;2.60;100.00;100736.53;5056149;28;20152;-86
2024/03/25 04:47:39;;;;;;;7.18;2.30;;;;;;;2.58;100.00;100740.81;5055556;28;20044;-86
2024/03/25 04:50:06;;;;;;;11.07;2.88;;;;;;;2.55;100.00;100746.03;5055536;28;20052;-86
2024/03/25 04:52:32;;;;;;;5.10;2.08;;;;;;;2.52;100.00;100746.06;5054087;28;20104;-86
2024/03/25 04:54:57;;;;;;;6.57;2.03;;;;;;;2.47;100.00;100743.53;5055402;28;20301;-86
2024/03/25 04:57:23;;;;;;;5.45;2.08;;;;;;;2.45;100.00;100747.81;5055114;28;20031;-86
2024/03/25 04:59:48;;;;;;;7.57;2.47;;;;;;;2.44;100.00;100748.72;5055490;28;20033;-88
2024/03/25 05:02:13;;;;;;;8.98;2.40;;;;;;;2.44;100.00;100743.53;5055738;28;20037;-86
2024/03/25 05:04:39;;;;;;;6.95;2.20;;;;;;;2.42;100.00;100753.03;5055731;28;20052;-86
2024/03/25 05:07:04;;;;;;;12.45;2.50;;;;;;;2.39;100.00;100747.03;5055875;28;20093;-85
2024/03/25 05:09:30;;;;;;;4.82;2.20;;;;;;;2.39;100.00;100747.03;5037380;28;20116;-86
2024/03/25 05:11:55;;;;;;;7.60;2.35;;;;;;;2.38;100.00;100751.34;5067973;28;20032;-85
2024/03/25 05:14:20;;;;;;;8.68;2.10;;;;;;;2.35;100.00;100746.22;5075092;28;20410;-86
2024/03/25 05:16:46;;;;;;;5.80;1.63;;;;;;;2.35;100.00;100745.34;5075686;28;20227;-88
2024/03/25 05:19:11;;;;;;;6.90;2.28;;;;;;;2.33;100.00;100747.06;5075745;28;20211;-88
2024/03/25 05:21:36;;;;;;;9.48;2.35;;;;;;;2.33;100.00;100742.78;5075573;28;20040;-85
2024/03/25 05:24:02;;;;;;;6.90;2.00;;;;;;;2.32;100.00;100741.06;5076115;28;20040;-85
2024/03/25 05:26:27;;;;;;;6.43;1.98;;;;;;;2.33;100.00;100737.63;5079448;28;20526;-86
2024/03/25 05:28:56;;;;;;;8.35;2.35;;;;;;;2.34;100.00;100739.31;5061259;28;20044;-86
2024/03/25 05:31:22;;;;;;;6.97;2.33;;;;;;;2.38;100.00;100729.81;5060987;28;20017;-86
2024/03/25 05:33:48;;;;;;;8.23;2.80;;;;;;;2.38;100.00;100734.97;5079673;28;20044;-86
2024/03/25 05:36:13;;;;;;;8.43;2.42;;;;;;;2.38;100.00;100732.41;5079343;28;20063;-86
2024/03/25 05:38:39;;;;;;;8.85;2.10;;;;;;;2.38;100.00;100734.97;5079059;28;20111;-86
2024/03/25 05:41:05;;;;;;;8.75;2.80;;;;;;;2.38;100.00;100732.41;5073715;28;20040;-86
2024/03/25 05:43:30;;;;;;;7.38;2.08;;;;;;;2.36;100.00;100728.97;5058613;28;20098;-86
2024/03/25 05:45:57;;;;;;;5.70;2.10;;;;;;;2.35;100.00;100727.25;5058469;28;20394;-86
2024/03/25 05:48:24;;;;;;;9.50;2.70;;;;;;;2.33;100.00;100729.88;5058954;28;20068;-86
2024/03/25 05:51:09;;;;;;;9.98;2.80;;;;;;;2.32;100.00;100720.38;5058979;28;20340;-86
2024/03/25 05:53:34;;;;;;;12.73;2.55;;;;;;;2.30;100.00;100716.97;5058333;28;20036;-87
2024/03/25 05:56:00;;;;;;;6.95;2.13;;;;;;;2.33;100.00;100721.22;5059365;28;20147;-86
2024/03/25 05:58:25;;;;;;;7.18;2.10;;;;;;;2.35;100.00;100714.31;5058505;28;20033;-86
2024/03/25 06:00:52;;;;;;;9.45;2.55;;;;;;;2.36;100.00;100716.03;5058876;28;20270;-86
2024/03/25 06:03:18;;;;;;;7.40;2.33;;;;;;;2.38;100.00;100719.47;5058180;28;20033;-86
2024/03/25 06:05:43;;;;;;;5.45;2.22;;;;;;;2.39;100.00;100724.63;5058470;28;20037;-86
2024/03/25 06:08:18;;;;;;;9.15;2.70;;;;;;;2.39;100.00;100724.63;5058198;28;20151;-86
2024/03/25 06:10:43;;;;;;;8.27;2.85;;;;;;;2.39;100.00;100716.88;5058719;28;20033;-86
2024/03/25 06:13:09;;;;;;;12.05;3.05;;;;;;;2.43;100.00;100713.38;5058922;28;20029;-86
2024/03/25 06:15:34;;;;;;;9.15;3.55;;;;;;;2.48;100.00;100716.78;5058594;28;20033;-86
2024/03/25 06:17:59;;;;;;;10.30;2.40;;;;;;;2.50;100.00;100709.88;5058497;28;20033;-86
2024/03/25 06:20:25;;;;;;;9.05;3.03;;;;;;;2.54;100.00;100702.94;5058069;28;20096;-86
2024/03/25 06:22:50;;;;;;;7.05;2.65;;;;;;;2.59;100.00;100700.34;5056222;28;20094;-86
2024/03/25 06:25:17;;;;;;;7.82;2.65;;;;;;;2.66;100.00;100701.97;5056835;28;20071;-86
2024/03/25 06:27:42;;;;;;;5.60;2.55;;;;;;;2.68;100.00;100692.47;5058298;28;20029;-86
2024/03/25 06:35:36;;;;;;;6.20;2.15;;;;;;;2.83;100.00;100702.63;5057208;28;20461;-86
2024/03/25 06:38:01;;;;;;;3.63;2.28;;;;;;;2.84;100.00;100694.03;5058059;28;20307;-86
2024/03/25 06:40:26;;;;;;;6.00;2.35;;;;;;;2.92;100.00;100703.44;5057625;28;20029;-86
2024/03/25 06:42:52;;;;;;;6.10;2.25;;;;;;;2.99;100.00;100705.06;5058269;28;20089;-86
2024/03/25 06:45:17;;;;;;;4.57;2.35;;;;;;;3.04;100.00;100698.13;5057489;28;20040;-86
2024/03/25 06:47:43;;;;;;;4.35;2.08;;;;;;;3.10;100.00;100702.38;5057236;28;20033;-86
2024/03/25 06:50:08;;;;;;;6.05;2.33;;;;;;;3.16;100.00;100700.53;5057623;28;20040;-86
2024/03/25 06:52:34;;;;;;;9.32;3.05;;;;;;;3.22;100.00;100704.78;5057534;28;20056;-86
2024/03/25 06:54:59;;;;;;;7.75;2.50;;;;;;;3.27;100.00;100697.81;5057609;28;20033;-86
2024/03/25 06:57:25;;;;;;;11.82;3.30;;;;;;;3.33;100.00;100700.34;5057309;28;20040;-86
2024/03/25 06:59:50;;;;;;;7.88;2.58;;;;;;;3.39;100.00;100697.66;5038922;28;20340;-86
2024/03/25 07:02:15;;;;;;;6.00;2.40;;;;;;;3.46;100.00;100707.06;5057143;28;20040;-86
2024/03/25 07:04:41;;;;;;;5.47;2.50;;;;;;;3.50;100.00;100694.94;5057022;28;20036;-86
2024/03/25 07:07:06;;;;;;;8.10;2.75;;;;;;;3.59;100.00;100693.94;5056516;28;20050;-86
2024/03/25 07:09:33;;;;;;;5.53;2.95;;;;;;;3.65;100.00;100696.44;5056354;28;20483;-86
2024/03/25 07:11:59;;;;;;;10.68;3.00;;;;;;;3.73;100.00;100693.72;5057012;28;20056;-86
2024/03/25 07:14:25;;;;;;;12.85;3.90;;;;;;;3.78;100.00;100681.56;5056756;28;20044;-86
2024/03/25 07:16:50;;;;;;;7.38;3.03;;;;;;;3.83;100.00;100688.41;5056758;28;20335;-86
2024/03/25 07:19:15;;;;;;;8.15;3.10;;;;;;;3.90;100.00;100688.31;5056309;28;20040;-87
2024/03/25 07:21:41;;;;;;;5.43;3.10;;;;;;;3.96;100.00;100696.84;5056619;28;20029;-86
2024/03/25 07:24:06;;;;;;;6.93;3.38;;;;;;;4.01;100.00;100695.03;5057155;28;20029;-86
2024/03/25 07:26:31;;;;;;;5.28;3.38;;;;;;;4.06;100.00;100697.56;5056709;28;20031;-86
2024/03/25 07:28:57;;;;;;;8.68;3.40;;;;;;;4.11;100.00;100698.34;5056710;28;20071;-86
2024/03/25 07:31:22;;;;;;;6.13;3.60;;;;;;;4.16;100.00;100691.31;5056635;28;20050;-86
2024/03/25 07:33:47;;;;;;;8.40;4.13;;;;;;;4.23;100.00;100695.53;5056469;28;20033;-86
2024/03/25 07:36:13;;;;;;;6.68;3.70;;;;;;;4.28;100.00;100695.47;5072095;28;20036;-86
2024/03/25 07:38:39;;;;;;;10.80;4.65;;;;;;;4.33;100.00;100693.66;5076280;28;20064;-86
2024/03/25 07:41:04;;;;;;;7.65;5.10;;;;;;;4.40;100.00;100695.25;5076090;28;20035;-86
2024/03/25 07:43:30;;;;;;;10.80;5.10;;;;;;;4.47;100.00;100702.91;5076225;28;20059;-88
2024/03/25 07:45:55;;;;;;;11.23;5.50;;;;;;;4.53;100.00;100708.00;5073066;28;20112;-88
2024/03/25 07:48:20;;;;;;;8.98;5.35;;;;;;;4.56;100.00;100706.19;5055305;28;20028;-86
2024/03/25 07:50:46;;;;;;;9.38;6.10;;;;;;;4.60;100.00;100705.28;5056019;28;20032;-86
2024/03/25 07:53:12;;;;;;;8.63;5.70;;;;;;;4.67;100.00;100713.78;5056296;28;20036;-86
2024/03/25 07:55:37;;;;;;;19.63;9.95;;;;;;;4.71;100.00;100715.47;5056598;28;20036;-86
2024/03/25 07:58:03;;;;;;;15.63;9.35;;;;;;;4.76;100.00;100712.78;5056172;28;20102;-86
2024/03/25 08:00:28;;;;;;;15.32;8.50;;;;;;;4.82;100.00;100720.47;5056119;28;20029;-86
2024/03/25 08:02:53;;;;;;;25.27;10.98;;;;;;;4.88;100.00;100719.47;5042619;28;20028;-86
2024/03/25 08:05:19;;;;;;;26.83;11.48;;;;;;;4.93;100.00;100718.50;5063223;28;20024;-86
2024/03/25 08:07:45;;;;;;;22.25;11.57;;;;;;;4.98;100.00;100718.41;5063889;28;20079;-86
2024/03/25 08:10:10;;;;;;;15.98;8.98;;;;;;;5.02;100.00;100722.66;5066571;28;20040;-86
2024/03/25 08:12:36;;;;;;;18.40;10.45;;;;;;;5.06;100.00;100716.53;5059789;28;20171;-86
2024/03/25 08:15:01;;;;;;;17.38;9.80;;;;;;;5.10;100.00;100715.56;5056190;28;20104;-86
2024/03/25 08:17:26;;;;;;;23.42;11.02;;;;;;;5.14;100.00;100719.81;5055423;28;20109;-86
2024/03/25 08:19:52;;;;;;;26.90;12.20;;;;;;;5.22;100.00;100718.78;5055490;28;20029;-86
2024/03/25 08:22:17;;;;;;;19.52;10.73;;;;;;;5.24;100.00;100720.50;5053869;28;20223;-86
2024/03/25 08:24:43;;;;;;;16.17;10.00;;;;;;;5.28;100.00;100721.28;5055430;28;20039;-86
2024/03/25 08:27:08;;;;;;;16.73;9.50;;;;;;;5.29;100.00;100730.78;5056319;28;20120;-86
2024/03/25 08:29:34;;;;;;;14.07;8.98;;;;;;;5.33;100.00;100720.31;5036426;28;20112;-86
2024/03/25 08:31:59;;;;;;;13.23;9.05;;;;;;;5.37;100.00;100713.31;5055238;28;20041;-86
2024/03/25 08:34:24;;;;;;;15.30;9.27;;;;;;;5.39;100.00;100716.72;5055525;28;20056;-86
2024/03/25 08:36:50;;;;;;;19.33;9.60;;;;;;;5.43;100.00;100707.13;5046376;28;20016;-86
2024/03/25 08:39:15;;;;;;;16.15;8.60;;;;;;;5.44;100.00;100707.09;5068021;28;20062;-86
2024/03/25 08:41:41;;;;;;;16.92;8.93;;;;;;;5.49;100.00;100701.78;5054280;28;20031;-86
2024/03/25 08:44:06;;;;;;;13.57;8.07;;;;;;;5.51;100.00;100697.41;5063457;28;20247;-86
2024/03/25 08:46:32;;;;;;;11.07;7.30;;;;;;;5.54;100.00;100698.19;5064327;28;20321;-86
2024/03/25 08:48:58;;;;;;;15.27;8.65;;;;;;;5.59;100.00;100698.09;5066700;28;20032;-86
2024/03/25 08:51:23;;;;;;;17.27;9.68;;;;;;;5.63;100.00;100693.69;5063882;28;20200;-85
2024/03/25 08:53:50;;;;;;;15.18;8.60;;;;;;;5.66;100.00;100688.44;5068008;28;20051;-86
2024/03/25 08:56:15;;;;;;;16.70;8.23;;;;;;;5.72;100.00;100689.13;5065532;28;20032;-86
2024/03/25 08:58:40;;;;;;;18.27;9.43;;;;;;;5.76;100.00;100684.72;5049727;28;20328;-85
2024/03/25 09:01:06;;;;;;;17.73;9.38;;;;;;;5.80;100.00;100688.09;5049880;28;20024;-86
2024/03/25 09:03:32;;;;;;;15.93;9.32;;;;;;;5.85;100.00;100681.06;5069505;28;20335;-85
2024/03/25 09:05:57;;;;;;;19.33;10.32;;;;;;;5.89;100.00;100672.28;5068013;28;20043;-86
2024/03/25 09:08:23;;;;;;;17.13;9.30;;;;;;;5.96;100.00;100682.53;5068400;28;20535;-86
2024/03/25 09:11:03;;;;;;;18.90;10.60;;;;;;;6.03;100.00;100679.78;5071157;28;20355;-86
2024/03/25 09:13:31;;;;;;;16.55;8.98;;;;;;;6.09;100.00;100684.84;5073661;28;20424;-86
2024/03/25 09:15:57;;;;;;;22.27;11.48;;;;;;;6.15;100.00;100679.50;5053313;28;20032;-86
2024/03/25 09:18:22;;;;;;;19.58;11.88;;;;;;;6.21;100.00;100686.28;5066696;28;20047;-86
2024/03/25 09:20:48;;;;;;;22.38;11.57;;;;;;;6.25;100.00;100680.97;5069669;28;20024;-86
2024/03/25 09:23:13;;;;;;;18.65;11.00;;;;;;;6.30;100.00;100681.69;5067367;28;20040;-86
2024/03/25 09:25:38;;;;;;;14.45;9.75;;;;;;;6.35;100.00;100681.59;5062877;28;20063;-86
2024/03/25 09:28:04;;;;;;;16.05;10.15;;;;;;;6.39;100.00;100664.16;5061043;28;20051;-86
2024/03/25 09:30:29;;;;;;;24.23;12.57;;;;;;;6.47;100.00;100670.00;5053574;28;20099;-86
2024/03/25 09:32:55;;;;;;;18.63;11.95;;;;;;;6.49;100.00;100671.69;5076389;28;20047;-85
2024/03/25 09:35:21;;;;;;;20.35;12.32;;;;;;;6.56;100.00;100664.56;5077587;28;20090;-86
2024/03/25 09:37:46;;;;;;;28.55;14.25;;;;;;;6.62;100.00;100660.94;5078291;28;20039;-85
2024/03/25 09:40:11;;;;;;;23.98;14.57;;;;;;;6.68;100.00;100659.03;5075922;28;20328;-85
2024/03/25 09:42:43;;;;;;;26.90;13.30;;;;;;;6.77;100.00;100652.72;5059473;28;20095;-85
2024/03/25 09:45:10;;;;;;;22.20;14.43;;;;;;;6.82;100.00;100655.19;5055767;28;20024;-86
2024/03/25 09:47:35;;;;;;;28.13;15.55;;;;;;;6.92;100.00;100649.66;5064111;28;20046;-85
2024/03/25 09:50:05;;;;;;;24.90;14.05;;;;;;;6.97;100.00;100649.56;5076772;28;20095;-85
2024/03/25 09:52:31;;;;;;;25.75;14.73;;;;;;;6.98;100.00;100650.41;5077554;28;20719;-85
2024/03/25 09:54:56;;;;;;;26.27;13.85;;;;;;;7.01;100.00;100655.53;5059928;28;20056;-85
2024/03/25 09:57:23;;;;;;;25.85;12.98;;;;;;;7.04;100.00;100651.09;5077874;28;20036;-85
2024/03/25 09:59:49;;;;;;;21.02;12.52;;;;;;;7.06;100.00;100641.47;5078403;28;20048;-85
2024/03/25 10:02:16;;;;;;;25.77;14.07;;;;;;;7.12;100.00;100648.25;5079118;28;20215;-84
2024/03/25 10:04:47;;;;;;;24.05;13.15;;;;;;;7.15;100.00;100640.34;5078714;28;20052;-84
2024/03/25 10:07:21;;;;;;;23.52;14.05;;;;;;;7.21;100.00;100639.31;5078714;28;20048;-85
2024/03/25 10:09:47;;;;;;;28.35;11.93;;;;;;;7.23;100.00;100642.72;5077834;28;20263;-85
2024/03/25 10:12:12;;;;;;;26.55;12.95;;;;;;;7.27;100.00;100641.72;5064140;28;20164;-85
2024/03/25 10:14:40;;;;;;;24.23;13.75;;;;;;;7.28;100.00;100633.88;5058608;28;20124;-84
2024/03/25 10:17:05;;;;;;;22.13;12.55;;;;;;;7.31;100.00;100627.69;5058730;28;20040;-85
2024/03/25 10:19:31;;;;;;;21.45;13.30;;;;;;;7.35;100.00;100634.53;5058066;28;20194;-85
2024/03/25 10:22:07;;;;;;;27.80;14.02;;;;;;;7.42;100.00;100627.38;5057803;28;20032;-85
2024/03/25 10:24:43;;;;;;;19.33;12.63;;;;;;;7.42;100.00;100624.78;5058208;28;20031;-84
2024/03/25 10:27:20;;;;;;;20.52;11.75;;;;;;;7.43;100.00;100623.88;5058330;28;20029;-85
2024/03/25 10:29:46;;;;;;;21.13;12.35;;;;;;;7.44;100.00;100625.56;5058006;28;20298;-85
2024/03/25 10:32:13;;;;;;;17.77;12.18;;;;;;;7.45;100.00;100616.88;5058499;28;20085;-85
2024/03/25 10:34:38;;;;;;;15.63;11.70;;;;;;;7.46;100.00;100614.22;5056760;28;20029;-85
2024/03/25 10:37:08;;;;;;;36.28;15.52;;;;;;;7.50;100.00;100615.81;5058507;28;20410;-84
2024/03/25 10:39:39;;;;;;;26.90;13.55;;;;;;;7.53;100.00;100612.28;5057654;28;20033;-85
2024/03/25 10:42:05;;;;;;;22.02;13.07;;;;;;;7.57;100.00;100613.03;5057688;28;20079;-84
2024/03/25 10:44:31;;;;;;;20.40;11.82;;;;;;;7.62;100.00;100606.78;5057660;28;20033;-84
2024/03/25 10:47:08;;;;;;;19.27;11.63;;;;;;;7.66;100.00;100604.91;5039655;28;20033;-85
2024/03/25 10:49:48;;;;;;;18.20;11.52;;;;;;;7.68;100.00;100601.34;5057178;28;20044;-85
2024/03/25 10:52:15;;;;;;;25.50;10.45;;;;;;;7.72;100.00;100596.88;5057811;28;20123;-85
2024/03/25 10:54:42;;;;;;;21.10;10.65;;;;;;;7.75;100.00;100596.81;5057928;28;20059;-84
2024/03/25 10:57:09;;;;;;;19.85;10.88;;;;;;;7.78;100.00;100593.22;5062758;28;20059;-84
2024/03/25 10:59:40;;;;;;;18.98;11.00;;;;;;;7.81;100.00;100587.91;5077243;28;20036;-84
2024/03/25 11:02:06;;;;;;;19.63;11.15;;;;;;;7.84;100.00;100595.63;5077838;28;20141;-85
2024/03/25 11:04:32;;;;;;;18.77;10.35;;;;;;;7.90;100.00;100589.38;5076844;28;20047;-84
2024/03/25 11:07:13;;;;;;;20.48;10.20;;;;;;;7.94;100.00;100588.34;5077151;28;20072;-84
2024/03/25 11:09:42;;;;;;;19.15;10.23;;;;;;;7.97;100.00;100585.66;5076849;28;20070;-84
2024/03/25 11:12:12;;;;;;;21.98;10.77;;;;;;;8.02;100.00;100587.19;5076572;28;20101;-84
2024/03/25 11:14:38;;;;;;;20.50;9.77;;;;;;;8.05;100.00;100578.41;5076706;28;20330;-84
2024/03/25 11:17:14;;;;;;;17.80;9.45;;;;;;;8.09;100.00;100572.19;5076506;28;20031;-84
2024/03/25 11:19:39;;;;;;;14.55;8.55;;;;;;;8.12;100.00;100566.88;5076661;28;20327;-84
2024/03/25 11:22:10;;;;;;;15.27;9.23;;;;;;;8.15;100.00;100563.28;5076365;28;20070;-84